Mount Waddington B, British Columbia

9:23 PM PST on February 13, 2016 (GMT -0800)
MARITIME | | Change Station
CLOSE
Current Station
Personal Weather Station
Location: Quatsino, BC
Elevation: 0 ft
Nearby Weather Stations

Elev 0 ft 50.50 °N, 127.80 °W | Updated 1 hour ago

Mostly Cloudy
Mostly Cloudy
48.0 °F
Feels Like 48.0 °F
N
3.0
Wind Variable Wind from WSW
Gusts 0.0 mph

Today
High -- | Low -- °F
--% Chance of Precip.
Yesterday
High -- | Low -- °F
Precip. -- in
Pressure 29.93 in
Visibility 15.0 miles
Clouds Mostly Cloudy 3200 ft
Dew Point Not available.
Humidity Not available.
Rainfall in
Snow Depth Not available.
7:46 AM 5:44 PM
Waxing Crescent, 38% visible
METAR CYZT 140500Z 15006KT 130V210 15SM BKN032 06/05 A2992 RMK SC6 SLP133
Pressure 29.93 in
Visibility 15.0 miles
Clouds Mostly Cloudy 3200 ft
Dew Point Not available.
Humidity Not available.
Rainfall in
Snow Depth Not available.
7:46 AM 5:44 PM
Waxing Crescent, 38% visible
METAR CYZT 140500Z 15006KT 130V210 15SM BKN032 06/05 A2992 RMK SC6 SLP133

10-Day Weather Forecast

No radar image for this location.
×

Almanac

Astronomy

Feb. 13, 2016 Rise Set
Actual Time
Civil Twilight
Nautical Twilight
Astronomical Twilight
Moon
Length of Visible Light
Length of Day
Tomorrow will be .
, % of the Moon is Illuminated

Today's Extremes

Country Highs Country Lows

Community

WunderPhotos

Upload Photos

1,892,748 photos uploaded!

WunderBlog® & News

Nearby

Air Quality

  Air Quality AQ Index Pollutant
Not available.

Snow Depth

Station Depth Elevation

Earthquake Activity

City Distance Mag. Time & Date
Minimum magnitude displayed is 2.5.

Coastal Water Temperatures

Place Temperature

Stations

Nearby Weather Stations

Station Location Temp. Windchill Dew Point Humidity Wind Precip. Elev Updated Type
                   

Watches & Warnings

There are currently no watches in effect.